KARR

Aurora Municipal Airport

Chicago/Aurora, Illinois, USA
METAR KARR 211306Z 33013G18KT 8SM SCT028 BKN035 OVC049 21/20 A2974 RMK AO2 T02110200 $
Observed Flight Rules
Jul-21 @ 13:06 UTC (32 minutes ago) Visual Flight Rules
Wind Visibility Clouds
330° at 13 knots
 Gusting to 18 knots
8 miles
  • Scattered at 2,800' AGL
  • Broken at 3,500' AGL
  • Overcast at 4,900' AGL
Temperatures Readings
Current 21°C / 70°F
Dewpoint 20°C / 68°F
Humidity 94%
Altimeter 29.74" Hg
Pressure 1007 hPa
Elevation 215
METAR KARR 211306Z 33013G18KT 8SM SCT028 BKN035 OVC049 21/20 A2974 RMK AO2 T02110200 $
Observed Flight Rules
Jul-21 @ 13:06 UTC
(32 minutes ago)
VFR
Wind Visibility
330° at 13 knots
 Gusting to 18 knots
8 miles
Clouds
  • Scattered at 2,800' AGL
  • Broken at 3,500' AGL
  • Overcast at 4,900' AGL
Temperature Dewpoint
21°C / 70°F 20°C / 68°F
Humidity Altimeter Pressure
94% 29.74" Hg 1007 hPa